createdAt,value
2019-05-01T00:00:29.924Z,97932.31
2019-05-01T00:02:54.623Z,97925.75
2019-05-01T00:05:13.172Z,97920.37
2019-05-01T00:07:23.186Z,97914.91
2019-05-01T00:09:32.041Z,97922.04
2019-05-01T00:11:40.296Z,97913.91
2019-05-01T00:13:48.184Z,97915.89
2019-05-01T00:15:56.698Z,97916.16
2019-05-01T00:18:05.109Z,97915.40
2019-05-01T00:20:13.658Z,97907.59
2019-05-01T00:22:21.813Z,97905.45
2019-05-01T00:24:29.587Z,97910.88
2019-05-01T00:26:37.793Z,97906.70
2019-05-01T00:28:45.662Z,97902.97
2019-05-01T00:30:53.706Z,97900.78
2019-05-01T00:33:01.692Z,97902.22
2019-05-01T00:35:09.880Z,97905.06
2019-05-01T00:37:18.051Z,97905.17
2019-05-01T00:39:26.993Z,97901.81
2019-05-01T00:41:34.936Z,97895.01
2019-05-01T00:43:42.833Z,97903.75
2019-05-01T00:45:50.752Z,97902.31
2019-05-01T00:47:59.622Z,97893.60
2019-05-01T00:50:09.068Z,97901.08
2019-05-01T00:52:17.373Z,97889.77
2019-05-01T00:54:25.515Z,97885.62
2019-05-01T00:56:41.390Z,97884.50
2019-05-01T00:58:52.266Z,97887.77
2019-05-01T01:01:18.577Z,97885.95
2019-05-01T01:03:26.922Z,97884.02
2019-05-01T01:05:35.237Z,97882.69
2019-05-01T01:07:43.220Z,97884.02
2019-05-01T01:09:51.571Z,97880.84
2019-05-01T01:12:00.745Z,97885.23
2019-05-01T01:14:08.762Z,97875.31
2019-05-01T01:16:17.189Z,97877.78
2019-05-01T01:18:25.045Z,97872.58
2019-05-01T01:20:32.924Z,97871.12
2019-05-01T01:22:41.174Z,97871.95
2019-05-01T01:24:49.556Z,97867.29
2019-05-01T01:26:57.870Z,97871.95
2019-05-01T01:29:05.818Z,97866.75
2019-05-01T01:31:13.784Z,97861.20
2019-05-01T01:33:22.752Z,97860.37
2019-05-01T01:35:30.539Z,97860.75
2019-05-01T01:37:38.519Z,97859.46
2019-05-01T01:39:46.441Z,97857.53
2019-05-01T01:41:56.008Z,97853.23
2019-05-01T01:44:15.442Z,97857.64
2019-05-01T01:46:25.050Z,97852.92
2019-05-01T01:48:33.074Z,97851.95
2019-05-01T01:50:45.068Z,97852.60
2019-05-01T01:52:54.318Z,97845.84
2019-05-01T01:55:02.555Z,97839.94
2019-05-01T01:57:11.047Z,97841.80
2019-05-01T01:59:20.163Z,97840.89
2019-05-01T02:01:29.912Z,97835.34
2019-05-01T02:03:42.508Z,97831.52
2019-05-01T02:05:50.615Z,97824.69
2019-05-01T02:07:58.528Z,97818.64
2019-05-01T02:10:07.915Z,97819.27
2019-05-01T02:12:16.463Z,97821.25
2019-05-01T02:14:24.428Z,97819.56
2019-05-01T02:16:32.568Z,97809.53
2019-05-01T02:18:40.341Z,97816.91
2019-05-01T02:20:48.210Z,97804.33
2019-05-01T02:22:56.219Z,97808.56
2019-05-01T02:25:06.270Z,97797.79
2019-05-01T02:27:18.911Z,97800.73
2019-05-01T02:29:31.378Z,97797.30
2019-05-01T02:31:45.221Z,97792.25
2019-05-01T02:33:55.252Z,97791.84
2019-05-01T02:36:04.558Z,97790.02
2019-05-01T02:38:15.593Z,97787.68
2019-05-01T02:40:42.927Z,97788.95
2019-05-01T02:42:52.357Z,97784.69
2019-05-01T02:45:02.040Z,97779.06
2019-05-01T02:47:15.934Z,97780.12
2019-05-01T02:49:37.194Z,97778.94
2019-05-01T02:51:45.919Z,97775.95
2019-05-01T02:53:55.621Z,97772.61
2019-05-01T02:56:21.901Z,97771.95
2019-05-01T02:58:30.021Z,97771.20
2019-05-01T03:00:38.120Z,97761.84
2019-05-01T03:02:46.176Z,97762.33
2019-05-01T03:04:55.178Z,97764.43
2019-05-01T03:07:04.756Z,97753.67
2019-05-01T03:09:12.719Z,97759.20
2019-05-01T03:11:20.897Z,97762.72
2019-05-01T03:13:29.410Z,97756.04
2019-05-01T03:15:38.249Z,97758.92
2019-05-01T03:17:54.019Z,97746.98
2019-05-01T03:20:07.602Z,97746.78
2019-05-01T03:22:20.161Z,97751.25
2019-05-01T03:24:28.811Z,97750.73
2019-05-01T03:26:37.125Z,97746.47
2019-05-01T03:28:46.634Z,97755.52
2019-05-01T03:30:55.060Z,97753.67
2019-05-01T03:33:04.302Z,97754.67
2019-05-01T03:35:12.479Z,97749.05
2019-05-01T03:37:20.698Z,97749.23
2019-05-01T03:39:29.928Z,97752.26
2019-05-01T03:41:37.735Z,97752.34
2019-05-01T03:43:45.711Z,97744.92
2019-05-01T03:45:54.032Z,97741.59
2019-05-01T03:48:02.174Z,97746.25
2019-05-01T03:50:10.183Z,97747.58
2019-05-01T03:52:18.942Z,97748.71
2019-05-01T03:54:27.679Z,97759.05
2019-05-01T03:56:35.997Z,97755.17
2019-05-01T03:58:44.978Z,97747.17
2019-05-01T04:01:01.432Z,97750.14
2019-05-01T04:03:21.187Z,97746.38
2019-05-01T04:05:29.146Z,97746.69
2019-05-01T04:07:37.805Z,97744.58
2019-05-01T04:09:45.813Z,97747.81
2019-05-01T04:11:53.903Z,97748.49
2019-05-01T04:14:02.033Z,97746.37
2019-05-01T04:16:13.684Z,97744.66
2019-05-01T04:18:22.376Z,97739.73
2019-05-01T04:20:31.919Z,97746.20
2019-05-01T04:22:39.763Z,97744.84
2019-05-01T04:24:49.086Z,97744.95
2019-05-01T04:26:58.055Z,97738.98
2019-05-01T04:29:15.086Z,97741.55
2019-05-01T04:31:25.032Z,97739.45
2019-05-01T04:33:34.573Z,97733.78
2019-05-01T04:35:52.244Z,97741.28
2019-05-01T04:38:01.052Z,97742.83
2019-05-01T04:40:09.218Z,97742.12
2019-05-01T04:42:17.356Z,97753.28
2019-05-01T04:44:25.403Z,97748.67
2019-05-01T04:46:33.778Z,97749.75
2019-05-01T04:48:42.192Z,97758.58
2019-05-01T04:50:50.228Z,97749.34
2019-05-01T04:52:59.806Z,97754.68
2019-05-01T04:55:09.380Z,97748.50
2019-05-01T04:57:17.620Z,97749.17
2019-05-01T04:59:25.682Z,97749.55
2019-05-01T05:01:52.584Z,97747.49
2019-05-01T05:04:01.290Z,97747.86
2019-05-01T05:06:09.780Z,97745.77
2019-05-01T05:08:18.356Z,97744.47
2019-05-01T05:10:26.250Z,97742.45
2019-05-01T05:12:48.050Z,97747.56
2019-05-01T05:15:11.615Z,97751.06
2019-05-01T05:17:21.052Z,97755.15
2019-05-01T05:19:28.983Z,97746.71
2019-05-01T05:21:37.136Z,97744.25
2019-05-01T05:23:45.363Z,97749.70
2019-05-01T05:25:54.108Z,97745.00
2019-05-01T05:28:03.982Z,97752.66
2019-05-01T05:30:12.099Z,97753.37
2019-05-01T05:32:21.949Z,97746.27
2019-05-01T05:34:30.589Z,97742.38
2019-05-01T05:36:39.701Z,97748.14
2019-05-01T05:38:52.616Z,97749.12
2019-05-01T05:41:01.726Z,97748.12
2019-05-01T05:43:10.244Z,97745.03
2019-05-01T05:45:19.050Z,97744.50
2019-05-01T05:47:27.462Z,97743.12
2019-05-01T05:49:35.486Z,97753.54
2019-05-01T05:51:48.808Z,97737.19
2019-05-01T05:54:02.193Z,97735.91
2019-05-01T05:56:19.072Z,97738.34
2019-05-01T05:58:38.390Z,97740.91
2019-05-01T06:00:56.150Z,97736.98
2019-05-01T06:03:31.022Z,97734.31
2019-05-01T06:05:46.626Z,97738.88
2019-05-01T06:08:12.460Z,97731.91
2019-05-01T06:10:24.434Z,97728.31
2019-05-01T06:12:49.763Z,97735.38
2019-05-01T06:15:17.909Z,97729.30
2019-05-01T06:17:36.928Z,97717.94
2019-05-01T06:19:49.664Z,97722.98
2019-05-01T06:22:10.215Z,97723.73
2019-05-01T06:24:23.306Z,97718.80
2019-05-01T06:26:37.242Z,97728.48
2019-05-01T06:28:43.225Z,97726.78
2019-05-01T06:30:51.250Z,97724.79
2019-05-01T06:33:04.141Z,97729.86
2019-05-01T06:35:10.735Z,97736.68
2019-05-01T06:37:21.008Z,97730.63
2019-05-01T06:39:28.944Z,97734.23
2019-05-01T06:41:42.647Z,97727.61
2019-05-01T06:43:57.092Z,97719.52
2019-05-01T06:46:11.514Z,97726.22
2019-05-01T06:48:21.515Z,97734.98
2019-05-01T06:50:32.137Z,97729.38
2019-05-01T06:52:41.304Z,97730.28
2019-05-01T06:54:52.112Z,97726.83
2019-05-01T06:57:03.172Z,97723.63
2019-05-01T06:59:26.300Z,97724.03
2019-05-01T07:01:33.670Z,97726.50
2019-05-01T07:03:46.958Z,97723.61
2019-05-01T07:05:54.530Z,97723.38
2019-05-01T07:08:04.562Z,97721.00
2019-05-01T07:10:12.766Z,97724.80
2019-05-01T07:12:23.795Z,97717.27
2019-05-01T07:14:33.570Z,97722.30
2019-05-01T07:16:41.935Z,97722.96
2019-05-01T07:18:51.862Z,97724.13
2019-05-01T07:20:59.744Z,97714.09
2019-05-01T07:23:07.863Z,97726.57
2019-05-01T07:25:16.921Z,97719.02
2019-05-01T07:27:25.202Z,97724.14
2019-05-01T07:29:35.303Z,97716.53
2019-05-01T07:31:43.352Z,97718.41
2019-05-01T07:33:52.483Z,97719.84
2019-05-01T07:36:01.375Z,97710.80
2019-05-01T07:38:09.647Z,97709.92
2019-05-01T07:40:20.801Z,97714.97
2019-05-01T07:42:29.910Z,97709.01
2019-05-01T07:44:47.829Z,97716.52
2019-05-01T07:47:07.392Z,97716.45
2019-05-01T07:49:17.651Z,97716.61
2019-05-01T07:51:26.450Z,97715.84
2019-05-01T07:53:35.147Z,97716.41
2019-05-01T07:55:43.770Z,97715.25
2019-05-01T07:57:51.715Z,97719.27
2019-05-01T08:00:03.651Z,97715.19
2019-05-01T08:02:11.683Z,97719.23
2019-05-01T08:04:35.185Z,97720.84
2019-05-01T08:06:29.066Z,97722.52
2019-05-01T08:08:39.702Z,97735.49
2019-05-01T08:10:46.867Z,97723.75
2019-05-01T08:12:55.522Z,97731.36
2019-05-01T08:15:06.581Z,97734.11
2019-05-01T08:17:17.946Z,97740.86
2019-05-01T08:19:39.389Z,97740.20
2019-05-01T08:21:47.425Z,97733.92
2019-05-01T08:23:55.252Z,97730.45
2019-05-01T08:26:03.891Z,97737.16
2019-05-01T08:28:14.227Z,97710.16
2019-05-01T08:30:39.079Z,97726.97
2019-05-01T08:32:54.792Z,97720.91
2019-05-01T08:35:04.412Z,97721.42
2019-05-01T08:37:12.813Z,97722.93
2019-05-01T08:39:20.718Z,97731.02
2019-05-01T08:41:31.822Z,97721.54
2019-05-01T08:43:39.715Z,97715.80
2019-05-01T08:45:52.009Z,97721.77
2019-05-01T08:48:00.402Z,97725.50
2019-05-01T08:50:19.918Z,97725.86
2019-05-01T08:52:27.109Z,97729.70
2019-05-01T08:54:36.047Z,97727.80
2019-05-01T08:56:44.841Z,97721.64
2019-05-01T08:58:53.094Z,97718.72
2019-05-01T09:01:01.119Z,97739.06
2019-05-01T09:03:09.027Z,97742.33
2019-05-01T09:05:28.273Z,97743.97
2019-05-01T09:07:26.823Z,97729.94
2019-05-01T09:09:39.651Z,97729.14
2019-05-01T09:11:45.001Z,97728.45
2019-05-01T09:13:54.687Z,97725.14
2019-05-01T09:16:03.383Z,97723.86
2019-05-01T09:18:11.261Z,97730.53
2019-05-01T09:20:19.187Z,97732.05
2019-05-01T09:22:30.254Z,97727.36
2019-05-01T09:24:38.175Z,97730.30
2019-05-01T09:27:04.233Z,97724.33
2019-05-01T09:29:16.121Z,97713.42
2019-05-01T09:31:25.320Z,97716.49
2019-05-01T09:33:33.259Z,97718.60
2019-05-01T09:35:45.418Z,97714.05
2019-05-01T09:37:52.047Z,97735.78
2019-05-01T09:40:04.242Z,97723.98
2019-05-01T09:42:10.004Z,97712.76
2019-05-01T09:44:18.188Z,97723.96
2019-05-01T09:46:26.344Z,97719.98
2019-05-01T09:48:34.322Z,97725.58
2019-05-01T09:50:43.881Z,97706.86
2019-05-01T09:53:09.405Z,97732.86
2019-05-01T09:55:23.098Z,97724.41
2019-05-01T09:57:36.565Z,97709.02
2019-05-01T09:59:43.653Z,97704.27
2019-05-01T10:01:51.549Z,97715.30
2019-05-01T10:03:59.638Z,97707.22
2019-05-01T10:06:07.487Z,97705.69
2019-05-01T10:08:15.460Z,97720.42
2019-05-01T10:10:24.756Z,97701.13
2019-05-01T10:12:34.051Z,97701.63
2019-05-01T10:14:42.955Z,97697.69
2019-05-01T10:17:13.426Z,97691.59
2019-05-01T10:19:22.619Z,97689.58
2019-05-01T10:21:31.460Z,97700.20
2019-05-01T10:23:39.561Z,97700.43
2019-05-01T10:25:50.996Z,97695.11
2019-05-01T10:28:07.065Z,97692.96
2019-05-01T10:30:17.699Z,97685.39
2019-05-01T10:32:27.966Z,97688.81
2019-05-01T10:34:42.935Z,97686.39
2019-05-01T10:36:54.601Z,97689.24
2019-05-01T10:39:01.821Z,97688.08
2019-05-01T10:41:12.088Z,97685.28
2019-05-01T10:43:20.378Z,97691.33
2019-05-01T10:45:30.341Z,97674.73
2019-05-01T10:47:41.838Z,97681.54
2019-05-01T10:49:50.346Z,97682.27
2019-05-01T10:51:59.298Z,97682.13
2019-05-01T10:54:09.578Z,97683.06
2019-05-01T10:56:22.488Z,97685.08
2019-05-01T10:58:30.796Z,97680.55
2019-05-01T11:00:40.949Z,97678.91
2019-05-01T11:02:49.614Z,97686.03
2019-05-01T11:04:58.954Z,97692.34
2019-05-01T11:07:07.348Z,97677.68
2019-05-01T11:09:17.021Z,97670.17
2019-05-01T11:11:26.260Z,97675.48
2019-05-01T11:13:34.576Z,97677.08
2019-05-01T11:15:43.432Z,97675.95
2019-05-01T11:17:51.614Z,97695.61
2019-05-01T11:20:00.134Z,97683.99
2019-05-01T11:22:11.821Z,97676.06
2019-05-01T11:24:21.118Z,97671.84
2019-05-01T11:26:30.491Z,97663.25
2019-05-01T11:28:38.503Z,97673.19
2019-05-01T11:30:46.639Z,97664.52
2019-05-01T11:33:14.927Z,97663.98
2019-05-01T11:35:29.993Z,97666.70
2019-05-01T11:37:37.990Z,97665.97
2019-05-01T11:39:50.274Z,97655.19
2019-05-01T11:42:05.892Z,97664.62
2019-05-01T11:44:13.867Z,97667.77
2019-05-01T11:46:21.684Z,97659.30
2019-05-01T11:48:30.274Z,97666.74
2019-05-01T11:50:39.141Z,97660.77
2019-05-01T11:52:47.115Z,97659.02
2019-05-01T11:54:54.925Z,97654.77
2019-05-01T11:57:02.673Z,97654.44
2019-05-01T11:59:10.775Z,97661.95
2019-05-01T12:01:20.776Z,97662.42
2019-05-01T12:03:28.775Z,97658.41
2019-05-01T12:05:37.003Z,97644.59
2019-05-01T12:07:44.841Z,97647.45
2019-05-01T12:09:52.625Z,97648.09
2019-05-01T12:12:02.166Z,97626.00
2019-05-01T12:14:10.221Z,97624.84
2019-05-01T12:16:27.111Z,97644.41
2019-05-01T12:18:35.999Z,97646.70
2019-05-01T12:20:43.882Z,97643.38
2019-05-01T12:22:51.788Z,97643.02
2019-05-01T12:25:00.831Z,97647.77
2019-05-01T12:27:08.761Z,97646.75
2019-05-01T12:29:16.747Z,97637.86
2019-05-01T12:31:24.573Z,97644.26
2019-05-01T12:33:32.351Z,97639.11
2019-05-01T12:35:40.352Z,97648.95
2019-05-01T12:37:48.377Z,97651.04
2019-05-01T12:39:57.316Z,97640.44
2019-05-01T12:42:05.271Z,97643.40
2019-05-01T12:44:13.074Z,97633.67
2019-05-01T12:46:38.729Z,97658.67
2019-05-01T12:48:47.708Z,97655.41
2019-05-01T12:50:55.677Z,97644.22
2019-05-01T12:53:17.033Z,97645.75
2019-05-01T12:55:25.000Z,97652.94
2019-05-01T12:57:33.491Z,97648.92
2019-05-01T12:59:43.114Z,97640.17
2019-05-01T13:01:51.105Z,97633.48
2019-05-01T13:03:59.863Z,97650.12
2019-05-01T13:06:14.420Z,97631.55
2019-05-01T13:08:23.383Z,97638.05
2019-05-01T13:10:32.595Z,97651.05
2019-05-01T13:12:40.881Z,97643.58
2019-05-01T13:14:48.921Z,97637.40
2019-05-01T13:16:56.743Z,97635.42
2019-05-01T13:19:04.824Z,97637.08
2019-05-01T13:21:12.699Z,97627.18
2019-05-01T13:23:20.514Z,97624.95
2019-05-01T13:25:29.219Z,97621.83
2019-05-01T13:27:49.303Z,97625.48
2019-05-01T13:30:08.533Z,97624.46
2019-05-01T13:32:37.470Z,97627.73
2019-05-01T13:34:45.777Z,97628.80
2019-05-01T13:37:02.754Z,97629.53
2019-05-01T13:39:09.551Z,97605.72
2019-05-01T13:41:17.547Z,97610.68
2019-05-01T13:43:25.386Z,97604.59
2019-05-01T13:45:33.260Z,97597.19
2019-05-01T13:47:42.135Z,97597.95
2019-05-01T13:49:50.116Z,97605.69
2019-05-01T13:51:58.067Z,97598.61
2019-05-01T13:54:07.061Z,97590.19
2019-05-01T13:56:15.037Z,97598.94
2019-05-01T13:58:22.925Z,97589.91
2019-05-01T14:00:32.029Z,97596.50
2019-05-01T14:02:39.832Z,97599.81
2019-05-01T14:04:47.606Z,97592.08
2019-05-01T14:06:55.582Z,97587.19
2019-05-01T14:09:06.025Z,97597.89
2019-05-01T14:11:15.899Z,97597.16
2019-05-01T14:13:24.551Z,97587.69
2019-05-01T14:15:32.981Z,97591.82
2019-05-01T14:17:42.379Z,97591.75
2019-05-01T14:19:58.722Z,97583.70
2019-05-01T14:22:09.263Z,97587.11
2019-05-01T14:24:28.836Z,97586.23
2019-05-01T14:26:37.107Z,97591.35
2019-05-01T14:28:45.465Z,97587.41
2019-05-01T14:30:53.869Z,97604.02
2019-05-01T14:33:02.096Z,97587.41
2019-05-01T14:35:11.173Z,97582.99
2019-05-01T14:37:29.493Z,97586.31
2019-05-01T14:39:31.101Z,97603.55
2019-05-01T14:41:39.971Z,97588.62
2019-05-01T14:43:48.571Z,97575.58
2019-05-01T14:45:57.032Z,97600.14
2019-05-01T14:48:05.475Z,97584.34
2019-05-01T14:50:14.237Z,97591.89
2019-05-01T14:52:22.699Z,97592.02
2019-05-01T14:54:31.326Z,97582.72
2019-05-01T14:56:39.974Z,97592.23
2019-05-01T14:58:48.486Z,97588.29
2019-05-01T15:00:59.414Z,97600.14
2019-05-01T15:03:08.002Z,97603.36
2019-05-01T15:05:16.715Z,97595.07
2019-05-01T15:07:25.143Z,97599.70
2019-05-01T15:09:33.637Z,97610.35
2019-05-01T15:11:42.885Z,97597.19
2019-05-01T15:14:05.402Z,97604.92
2019-05-01T15:16:31.666Z,97614.97
2019-05-01T15:18:54.128Z,97608.19
2019-05-01T15:21:06.530Z,97604.25
2019-05-01T15:23:17.502Z,97601.30
2019-05-01T15:25:25.882Z,97606.56
2019-05-01T15:27:34.743Z,97594.72
2019-05-01T15:29:43.006Z,97597.16
2019-05-01T15:31:51.878Z,97590.85
2019-05-01T15:33:59.861Z,97589.47
2019-05-01T15:36:09.114Z,97584.95
2019-05-01T15:38:17.065Z,97588.69
2019-05-01T15:40:32.336Z,97586.98
2019-05-01T15:42:50.869Z,97600.75
2019-05-01T15:44:59.147Z,97584.73
2019-05-01T15:47:07.119Z,97592.81
2019-05-01T15:49:16.138Z,97587.83
2019-05-01T15:51:23.991Z,97580.99
2019-05-01T15:53:31.948Z,97583.20
2019-05-01T15:55:39.900Z,97578.52
2019-05-01T15:57:47.784Z,97582.80
2019-05-01T15:59:56.272Z,97572.52
2019-05-01T16:02:05.178Z,97576.33
2019-05-01T16:04:13.763Z,97581.09
2019-05-01T16:06:22.055Z,97582.09
2019-05-01T16:08:29.952Z,97589.45
2019-05-01T16:10:48.695Z,97577.48
2019-05-01T16:12:58.551Z,97574.53
2019-05-01T16:15:11.448Z,97578.17
2019-05-01T16:17:20.155Z,97577.11
2019-05-01T16:19:29.671Z,97588.36
2019-05-01T16:21:39.878Z,97574.15
2019-05-01T16:23:47.836Z,97563.40
2019-05-01T16:25:56.113Z,97569.86
2019-05-01T16:28:04.869Z,97571.78
2019-05-01T16:30:15.781Z,97567.45
2019-05-01T16:32:24.651Z,97570.55
2019-05-01T16:34:33.463Z,97557.98
2019-05-01T16:36:42.381Z,97569.01
2019-05-01T16:38:52.715Z,97562.82
2019-05-01T16:41:03.353Z,97568.84
2019-05-01T16:43:12.913Z,97561.38
2019-05-01T16:45:22.134Z,97571.78
2019-05-01T16:47:30.610Z,97562.34
2019-05-01T16:49:40.882Z,97565.55
2019-05-01T16:51:48.899Z,97561.28
2019-05-01T16:53:57.715Z,97566.63
2019-05-01T16:56:06.318Z,97567.63
2019-05-01T16:58:16.229Z,97575.61
2019-05-01T17:00:59.492Z,97572.08
2019-05-01T17:03:19.108Z,97572.73
2019-05-01T17:05:33.189Z,97577.58
2019-05-01T17:07:59.682Z,97575.00
2019-05-01T17:10:14.397Z,97572.53
2019-05-01T17:12:24.932Z,97574.83
2019-05-01T17:14:33.730Z,97580.71
2019-05-01T17:16:41.757Z,97568.61
2019-05-01T17:18:52.354Z,97571.78
2019-05-01T17:21:01.317Z,97570.83
2019-05-01T17:23:09.701Z,97574.94
2019-05-01T17:25:18.313Z,97577.49
2019-05-01T17:27:27.526Z,97572.66
2019-05-01T17:29:35.632Z,97570.22
2019-05-01T17:31:45.475Z,97575.13
2019-05-01T17:33:55.464Z,97565.51
2019-05-01T17:36:06.638Z,97569.56
2019-05-01T17:38:15.099Z,97567.99
2019-05-01T17:40:24.950Z,97565.94
2019-05-01T17:42:37.741Z,97565.42
2019-05-01T17:44:47.055Z,97561.97
2019-05-01T17:46:55.357Z,97561.67
2019-05-01T17:49:09.152Z,97560.64
2019-05-01T17:51:19.787Z,97572.61
2019-05-01T17:53:29.547Z,97570.50
2019-05-01T17:55:37.589Z,97564.66
2019-05-01T17:57:49.361Z,97571.13
2019-05-01T17:59:59.501Z,97569.92
2019-05-01T18:02:10.127Z,97570.67
2019-05-01T18:04:26.473Z,97566.56
2019-05-01T18:06:37.083Z,97569.94
2019-05-01T18:08:45.660Z,97572.05
2019-05-01T18:10:54.531Z,97570.89
2019-05-01T18:13:03.813Z,97570.20
2019-05-01T18:15:13.188Z,97574.88
2019-05-01T18:17:21.174Z,97573.19
2019-05-01T18:19:30.074Z,97578.33
2019-05-01T18:21:38.789Z,97578.44
2019-05-01T18:24:00.718Z,97578.89
2019-05-01T18:26:16.709Z,97581.02
2019-05-01T18:28:43.463Z,97582.19
2019-05-01T18:30:56.510Z,97579.89
2019-05-01T18:33:02.836Z,97583.30
2019-05-01T18:35:14.061Z,97590.34
2019-05-01T18:37:34.671Z,97586.95
2019-05-01T18:39:43.204Z,97587.33
2019-05-01T18:41:54.307Z,97585.80
2019-05-01T18:44:05.316Z,97590.94
2019-05-01T18:46:12.512Z,97593.26
2019-05-01T18:48:21.927Z,97595.13
2019-05-01T18:50:30.047Z,97591.76
2019-05-01T18:52:38.563Z,97592.09
2019-05-01T18:54:46.891Z,97594.17
2019-05-01T18:56:55.405Z,97594.08
2019-05-01T18:59:04.950Z,97593.41
2019-05-01T19:01:14.343Z,97596.43
2019-05-01T19:03:22.711Z,97602.48
2019-05-01T19:05:31.117Z,97594.19
2019-05-01T19:07:42.533Z,97598.07
2019-05-01T19:09:51.193Z,97596.62
2019-05-01T19:14:37.875Z,97591.84
2019-05-01T19:16:47.173Z,97593.71
2019-05-01T19:18:55.653Z,97595.69
2019-05-01T19:21:04.038Z,97592.86
2019-05-01T19:23:13.672Z,97595.55
2019-05-01T19:25:23.328Z,97593.73
2019-05-01T19:27:31.539Z,97599.79
2019-05-01T19:29:39.880Z,97605.75
2019-05-01T19:31:49.422Z,97603.77
2019-05-01T19:33:57.876Z,97598.92
2019-05-01T19:36:08.258Z,97601.96
2019-05-01T19:38:16.704Z,97603.70
2019-05-01T19:40:30.410Z,97593.53
2019-05-01T19:42:34.946Z,97595.17
2019-05-01T19:44:43.589Z,97594.60
2019-05-01T19:46:51.725Z,97595.66
2019-05-01T19:49:01.197Z,97600.28
2019-05-01T19:51:11.313Z,97599.61
2019-05-01T19:53:19.925Z,97612.64
2019-05-01T19:55:28.606Z,97612.50
2019-05-01T19:57:36.932Z,97610.39
2019-05-01T19:59:45.633Z,97608.42
2019-05-01T20:01:54.977Z,97606.75
2019-05-01T20:04:03.723Z,97609.34
2019-05-01T20:06:17.542Z,97604.09
2019-05-01T20:08:25.923Z,97609.11
2019-05-01T20:10:33.786Z,97605.89
2019-05-01T20:12:41.688Z,97599.63
2019-05-01T20:14:49.549Z,97602.33
2019-05-01T20:16:57.445Z,97596.28
2019-05-01T20:19:05.566Z,97594.56
2019-05-01T20:21:13.657Z,97603.17
2019-05-01T20:23:26.188Z,97589.55
2019-05-01T20:25:31.962Z,97594.24
2019-05-01T20:27:42.836Z,97595.43
2019-05-01T20:29:49.733Z,97598.02
2019-05-01T20:31:57.564Z,97594.52
2019-05-01T20:34:05.836Z,97599.16
2019-05-01T20:36:13.811Z,97602.41
2019-05-01T20:38:21.730Z,97600.89
2019-05-01T20:40:29.619Z,97601.89
2019-05-01T20:42:37.691Z,97606.77
2019-05-01T20:44:45.667Z,97610.98
2019-05-01T20:46:53.528Z,97601.39
2019-05-01T20:49:06.275Z,97600.87
2019-05-01T20:51:11.505Z,97605.86
2019-05-01T20:53:19.849Z,97601.64
2019-05-01T20:55:27.741Z,97599.20
2019-05-01T20:57:43.348Z,97600.48
2019-05-01T20:59:51.229Z,97604.70
2019-05-01T21:02:07.782Z,97598.52
2019-05-01T21:04:09.328Z,97598.98
2019-05-01T21:06:19.781Z,97596.61
2019-05-01T21:08:34.293Z,97595.36
2019-05-01T21:10:52.201Z,97599.70
2019-05-01T21:13:00.361Z,97596.00
2019-05-01T21:15:08.736Z,97597.09
2019-05-01T21:17:16.649Z,97597.73
2019-05-01T21:19:25.732Z,97593.97
2019-05-01T21:21:34.520Z,97592.86
2019-05-01T21:23:43.468Z,97597.08
2019-05-01T21:25:53.738Z,97588.25
2019-05-01T21:28:01.379Z,97580.91
2019-05-01T21:30:09.936Z,97587.38
2019-05-01T21:32:18.469Z,97587.59
2019-05-01T21:34:27.706Z,97581.84
2019-05-01T21:36:36.229Z,97584.52
2019-05-01T21:38:44.179Z,97584.37
2019-05-01T21:40:53.812Z,97588.53
2019-05-01T21:43:03.104Z,97592.98
2019-05-01T21:45:12.802Z,97587.14
2019-05-01T21:47:20.767Z,97585.67
2019-05-01T21:49:28.980Z,97587.78
2019-05-01T21:51:37.014Z,97590.92
2019-05-01T21:53:46.869Z,97589.14
2019-05-01T21:56:02.274Z,97589.75
2019-05-01T21:58:08.191Z,97590.28
2019-05-01T22:00:20.012Z,97595.96
2019-05-01T22:02:28.493Z,97595.40
2019-05-01T22:04:36.931Z,97585.56
2019-05-01T22:06:51.579Z,97582.63
2019-05-01T22:08:55.789Z,97581.50
2019-05-01T22:11:05.189Z,97575.31
2019-05-01T22:13:14.926Z,97579.65
2019-05-01T22:15:30.557Z,97579.61
2019-05-01T22:17:52.129Z,97573.09
2019-05-01T22:20:00.211Z,97576.39
2019-05-01T22:22:25.003Z,97569.02
2019-05-01T22:24:37.085Z,97566.94
2019-05-01T22:26:46.636Z,97567.28
2019-05-01T22:29:08.057Z,97559.59
2019-05-01T22:31:16.733Z,97552.90
2019-05-01T22:33:26.467Z,97549.39
2019-05-01T22:35:39.015Z,97551.39
2019-05-01T22:37:46.996Z,97548.67
2019-05-01T22:39:59.176Z,97541.59
2019-05-01T22:42:07.181Z,97543.06
2019-05-01T22:44:18.061Z,97543.25
2019-05-01T22:46:26.513Z,97541.40
2019-05-01T22:48:35.968Z,97545.06
2019-05-01T22:50:44.337Z,97547.09
2019-05-01T22:52:52.540Z,97544.95
2019-05-01T22:55:00.607Z,97545.52
2019-05-01T22:57:09.560Z,97546.23
2019-05-01T22:59:17.749Z,97531.80
2019-05-01T23:01:26.880Z,97525.32
2019-05-01T23:03:41.170Z,97516.84
2019-05-01T23:05:50.383Z,97519.21
2019-05-01T23:07:58.749Z,97516.31
2019-05-01T23:10:10.763Z,97514.96
2019-05-01T23:12:19.065Z,97513.61
2019-05-01T23:14:28.169Z,97509.28
2019-05-01T23:16:37.867Z,97505.73
2019-05-01T23:18:47.111Z,97500.39
2019-05-01T23:20:55.607Z,97498.20
2019-05-01T23:23:03.368Z,97501.92
2019-05-01T23:25:11.597Z,97504.94
2019-05-01T23:27:19.438Z,97507.66
2019-05-01T23:29:27.423Z,97500.58
2019-05-01T23:31:35.311Z,97504.02
2019-05-01T23:33:45.742Z,97501.20
2019-05-01T23:35:52.812Z,97502.67
2019-05-01T23:38:00.674Z,97500.37
2019-05-01T23:40:11.009Z,97499.55
2019-05-01T23:42:20.186Z,97497.73
2019-05-01T23:44:28.068Z,97499.84
2019-05-01T23:46:35.919Z,97496.83
2019-05-01T23:48:43.678Z,97490.62
2019-05-01T23:50:51.766Z,97485.77
2019-05-01T23:52:59.704Z,97484.28
2019-05-01T23:55:08.682Z,97489.52
2019-05-01T23:57:18.796Z,97489.78
2019-05-01T23:59:26.195Z,97482.90
